Fire Weather Observation
Issued by NWS Grand Junction, CO

Home | Current Version | Previous Version | Graphics & Text | Print | Product List | Glossary On
Versions: 1 2 3 4 5 6 7 8 9 10 11 12 13 14 15 16 17 18 19 20 21 22 23 24 25 26 27 28 29 30 31 32 33 34 35 36 37 38 39 40 41 42 43 44 45 46 47 48 49 50
000
SHUS65 KGJT 272028
FWOGJT

DAILY FIRE WEATHER OBSERVATION
NATIONAL WEATHER SERVICE GRAND JUNCTION CO
228 PM MDT WED AUG 27 2014

STATE OF THE WEATHER (W)               2
DRY BULB TEMPERATURE                   66   DEGREES FAHRENHEIT
RELATIVE HUMIDITY (RH)                 63   PERCENT
LIGHTNING ACTIVITY LEVEL
  (LAL - MIDNIGHT TO 2 PM)             5
WIND DIRECTION                         360  DEGREES (C IF CALM)
WIND SPEED                             6    MPH
MAX TEMP (2 PM - 2 PM)                 79   DEGREES FAHRENHEIT
MIN TEMP (2 PM - 2 PM)                 57   DEGREES FAHRENHEIT
MAX RH (2 PM - 2 PM)                   97   PERCENT
MIN RH (2 PM - 2 PM)                   35   PERCENT
PCPN DURATION                          7.2  HOURS
PCPN AMT (2 PM - 2 PM)                 0.44 INCHES
LAL (2 PM - 2 PM)                      5

$$

METAR KGJT 271953Z 01005KT 10SM SCT110 19/12 A3023 RMK AO2 LTG
      DSNT E AND S RAE03 TSE10 SLP189 VCSH P0002 T01890117



USA.gov is the U.S. government's official web portal to all federal, state and local government web resources and services.